Time;durP1;ratioP1;P1;durP2;ratioP2;P2;SDS_P1;SDS_P2;PMS_P1;PMS_P2;Temp;Humidity;BMP_temperature;BMP_pressure;BME280_temperature;BME280_humidity;BME280_pressure;Samples;Min_cycle;Max_cycle;Signal;HPM_P1;HPM_P2
2023/07/09 00:00:25;;;;;;;8.40;4.07;;;19.60;91.10;;;;;;5018059;28;20025;-76
2023/07/09 00:02:51;;;;;;;8.73;4.65;;;19.60;91.30;;;;;;5017536;28;20056;-75
2023/07/09 00:05:17;;;;;;;11.07;4.28;;;19.60;91.50;;;;;;5017002;28;20057;-75
2023/07/09 00:07:45;;;;;;;9.15;5.20;;;19.50;91.50;;;;;;5016695;28;20073;-76
2023/07/09 00:10:19;;;;;;;8.20;4.47;;;19.50;91.40;;;;;;5018114;28;20048;-76
2023/07/09 00:12:45;;;;;;;9.35;4.35;;;19.40;91.40;;;;;;5013473;28;20365;-76
2023/07/09 00:15:12;;;;;;;10.20;4.45;;;19.40;91.00;;;;;;5016400;28;20042;-76
2023/07/09 00:17:39;;;;;;;8.30;4.25;;;19.50;91.10;;;;;;5000791;28;20029;-76
2023/07/09 00:20:13;;;;;;;9.98;3.88;;;19.50;91.60;;;;;;5016250;28;20101;-76
2023/07/09 00:22:39;;;;;;;;;;;19.50;91.40;;;;;;4997242;28;20088;-76
2023/07/09 00:25:05;;;;;;;9.13;4.25;;;19.50;91.10;;;;;;5017631;28;19988;-76
2023/07/09 00:27:31;;;;;;;8.60;3.60;;;19.50;91.30;;;;;;5013791;28;20458;-75
2023/07/09 00:29:59;;;;;;;9.52;4.63;;;19.50;91.50;;;;;;4997661;28;20117;-75
2023/07/09 00:32:26;;;;;;;8.18;4.57;;;19.50;91.60;;;;;;5014311;28;20036;-76
2023/07/09 00:34:53;;;;;;;7.80;4.22;;;19.50;91.80;;;;;;5015961;28;20018;-76
2023/07/09 00:37:21;;;;;;;7.30;3.72;;;19.40;91.90;;;;;;5014317;28;20038;-76
2023/07/09 00:39:47;;;;;;;11.88;4.75;;;19.30;92.00;;;;;;5015703;28;20336;-76
2023/07/09 00:42:18;;;;;;;7.60;4.25;;;19.30;92.10;;;;;;5010628;28;20422;-76
2023/07/09 00:44:46;;;;;;;7.95;4.10;;;19.30;92.10;;;;;;5016486;28;20033;-76
2023/07/09 00:47:20;;;;;;;8.55;4.50;;;19.20;92.40;;;;;;5015055;28;20044;-75
2023/07/09 00:49:46;;;;;;;;;;;19.20;92.60;;;;;;5012413;28;20026;-76
2023/07/09 00:52:32;;;;;;;9.77;4.75;;;19.20;92.60;;;;;;5013212;28;20291;-76
2023/07/09 00:55:01;;;;;;;9.15;4.72;;;19.20;92.60;;;;;;5014560;28;20033;-75
2023/07/09 00:57:29;;;;;;;12.23;4.45;;;19.20;92.50;;;;;;5012840;28;20029;-76
2023/07/09 01:00:01;;;;;;;8.80;4.70;;;19.20;92.50;;;;;;5013997;28;20032;-75
2023/07/09 01:02:27;;;;;;;14.10;5.53;;;19.20;92.50;;;;;;5013710;28;20026;-76
2023/07/09 01:05:00;;;;;;;9.05;4.20;;;19.20;92.30;;;;;;5012038;28;20105;-76
2023/07/09 01:07:28;;;;;;;9.18;4.28;;;19.20;92.10;;;;;;5015579;28;20061;-75
2023/07/09 01:09:54;;;;;;;9.55;4.57;;;19.20;92.20;;;;;;5015344;28;20379;-75
2023/07/09 01:12:22;;;;;;;8.80;4.00;;;19.20;92.40;;;;;;5016515;28;20025;-76
2023/07/09 01:14:51;;;;;;;12.32;4.90;;;19.20;92.30;;;;;;5016199;28;20022;-76
2023/07/09 01:17:18;;;;;;;10.73;4.90;;;19.20;92.20;;;;;;5015681;28;20426;-76
2023/07/09 01:19:49;;;;;;;8.48;4.15;;;19.20;92.30;;;;;;5013291;28;20029;-76
2023/07/09 01:22:18;;;;;;;7.68;4.35;;;19.20;92.30;;;;;;5013372;28;20038;-76
2023/07/09 01:25:19;;;;;;;8.57;4.07;;;19.20;92.30;;;;;;5016524;28;20034;-76
2023/07/09 01:27:47;;;;;;;7.50;4.55;;;19.10;92.60;;;;;;4953497;28;20059;-76
2023/07/09 01:30:22;;;;;;;9.98;4.60;;;19.10;92.80;;;;;;5004883;28;20361;-75
2023/07/09 01:32:49;;;;;;;8.05;4.45;;;19.10;92.80;;;;;;5013843;28;20422;-76
2023/07/09 01:35:17;;;;;;;7.90;4.20;;;19.10;92.90;;;;;;5014826;28;20411;-76
2023/07/09 01:37:43;;;;;;;10.27;5.00;;;19.00;92.90;;;;;;5013631;28;20034;-75
2023/07/09 01:40:10;;;;;;;8.10;4.72;;;19.10;92.90;;;;;;5014285;28;20034;-76
2023/07/09 01:42:38;;;;;;;10.07;4.60;;;19.00;92.70;;;;;;5015097;28;20049;-76
2023/07/09 01:45:06;;;;;;;12.75;5.43;;;19.00;92.70;;;;;;5015946;28;20040;-75
2023/07/09 01:47:32;;;;;;;9.40;4.90;;;19.00;92.80;;;;;;5014188;28;20338;-75
2023/07/09 01:49:57;;;;;;;10.18;4.72;;;19.00;92.80;;;;;;5014362;28;20022;-76
2023/07/09 01:52:29;;;;;;;8.48;4.50;;;19.00;92.70;;;;;;5013780;28;20029;-76
2023/07/09 01:54:56;;;;;;;9.85;4.70;;;19.00;92.80;;;;;;5015278;28;20369;-75
2023/07/09 01:57:24;;;;;;;9.98;4.50;;;18.90;92.90;;;;;;5015446;28;20065;-76
2023/07/09 01:59:51;;;;;;;7.38;4.20;;;18.90;93.10;;;;;;5015213;28;20025;-76
2023/07/09 02:02:20;;;;;;;8.40;4.70;;;18.90;93.20;;;;;;5013784;28;20033;-76
2023/07/09 02:04:52;;;;;;;9.50;4.80;;;18.80;93.20;;;;;;5002794;28;20030;-76
2023/07/09 02:07:18;;;;;;;11.07;4.80;;;18.80;93.00;;;;;;5014808;28;20044;-76
2023/07/09 02:09:44;;;;;;;7.90;4.60;;;18.80;93.20;;;;;;4997206;28;20335;-76
2023/07/09 02:12:11;;;;;;;8.90;4.47;;;18.80;93.40;;;;;;5018096;28;20026;-76
2023/07/09 02:14:38;;;;;;;8.93;4.53;;;18.70;93.50;;;;;;5015812;28;20327;-76
2023/07/09 02:17:03;;;;;;;8.00;4.50;;;18.80;93.70;;;;;;4996370;28;20401;-75
2023/07/09 02:19:30;;;;;;;12.30;4.50;;;18.70;93.80;;;;;;5008082;28;20121;-75
2023/07/09 02:21:56;;;;;;;9.00;4.75;;;18.70;93.80;;;;;;4989672;28;20121;-74
2023/07/09 02:24:26;;;;;;;9.85;4.50;;;18.70;93.50;;;;;;4997590;28;20089;-74
2023/07/09 02:26:53;;;;;;;8.32;4.60;;;18.70;93.40;;;;;;5011003;28;20033;-75
2023/07/09 02:29:19;;;;;;;12.55;4.97;;;18.80;93.40;;;;;;5013844;28;20026;-75
2023/07/09 02:31:45;;;;;;;10.43;4.78;;;18.80;93.40;;;;;;5014796;28;20053;-74
2023/07/09 02:34:14;;;;;;;10.02;4.70;;;18.70;93.70;;;;;;5015109;28;20446;-75
2023/07/09 02:36:42;;;;;;;8.80;4.22;;;18.60;94.00;;;;;;5011460;28;20044;-74
2023/07/09 02:39:10;;;;;;;8.90;4.70;;;18.60;94.20;;;;;;5017731;28;20032;-75
2023/07/09 02:41:36;;;;;;;11.23;5.35;;;18.50;94.40;;;;;;5022073;28;20046;-75
2023/07/09 02:44:01;;;;;;;12.57;5.13;;;18.50;94.40;;;;;;5024638;28;20032;-76
2023/07/09 02:46:27;;;;;;;7.90;3.97;;;18.50;94.30;;;;;;5020063;28;20034;-75
2023/07/09 02:48:53;;;;;;;9.98;4.50;;;18.50;94.30;;;;;;5017547;28;20029;-75
2023/07/09 02:51:18;;;;;;;11.07;4.53;;;18.50;94.40;;;;;;4999919;28;20072;-75
2023/07/09 02:53:44;;;;;;;9.25;4.95;;;18.50;94.20;;;;;;5039274;28;20027;-75
2023/07/09 02:56:10;;;;;;;8.85;5.13;;;18.50;94.30;;;;;;5025019;28;20259;-76
2023/07/09 02:58:35;;;;;;;7.50;4.53;;;18.50;94.40;;;;;;5018667;28;20058;-76
2023/07/09 03:01:03;;;;;;;9.23;4.53;;;18.50;94.50;;;;;;5018110;28;20485;-75
2023/07/09 03:03:28;;;;;;;10.13;4.68;;;18.50;94.40;;;;;;5017351;28;20030;-76
2023/07/09 03:05:54;;;;;;;8.43;4.40;;;18.50;94.30;;;;;;5017090;28;20029;-76
2023/07/09 03:08:20;;;;;;;9.43;4.47;;;18.50;94.20;;;;;;4999780;28;20045;-76
2023/07/09 03:10:45;;;;;;;9.90;5.32;;;18.50;94.10;;;;;;5015443;28;20315;-75
2023/07/09 03:13:11;;;;;;;10.10;4.68;;;18.50;94.10;;;;;;5018218;28;20084;-75
2023/07/09 03:15:37;;;;;;;9.45;4.60;;;18.50;94.30;;;;;;5018179;28;20323;-76
2023/07/09 03:18:02;;;;;;;11.25;4.97;;;18.50;94.30;;;;;;5013866;28;20040;-76
2023/07/09 03:20:28;;;;;;;9.32;4.43;;;18.50;94.30;;;;;;5032760;28;20036;-76
2023/07/09 03:22:53;;;;;;;8.30;4.30;;;18.50;94.40;;;;;;5017534;28;20433;-76
2023/07/09 03:25:19;;;;;;;8.73;4.78;;;18.50;94.40;;;;;;5017689;28;20029;-75
2023/07/09 03:27:48;;;;;;;9.15;4.50;;;18.50;94.30;;;;;;5014414;28;20038;-75
2023/07/09 03:30:14;;;;;;;12.30;4.68;;;18.50;94.20;;;;;;5017943;28;20034;-75
2023/07/09 03:32:39;;;;;;;9.75;4.65;;;18.50;94.10;;;;;;4999824;28;20133;-76
2023/07/09 03:35:06;;;;;;;9.25;4.93;;;18.50;94.10;;;;;;5018807;28;20105;-75
2023/07/09 03:37:31;;;;;;;7.50;4.45;;;18.50;94.30;;;;;;5016247;28;20112;-76
2023/07/09 03:39:57;;;;;;;10.57;4.95;;;18.40;94.50;;;;;;5017672;28;20113;-76
2023/07/09 03:42:22;;;;;;;9.38;4.55;;;18.40;94.40;;;;;;5017382;28;20054;-75
2023/07/09 03:44:48;;;;;;;9.23;4.32;;;18.50;94.30;;;;;;5017485;28;20647;-76
2023/07/09 03:47:13;;;;;;;10.88;4.47;;;18.50;94.20;;;;;;5016476;28;20033;-76
2023/07/09 03:49:41;;;;;;;7.85;4.53;;;18.50;94.00;;;;;;5017231;28;20038;-75
2023/07/09 03:52:07;;;;;;;10.80;4.53;;;18.50;94.00;;;;;;5015324;28;20080;-76
2023/07/09 03:54:33;;;;;;;9.30;4.93;;;18.50;94.10;;;;;;5016323;28;20034;-76
2023/07/09 03:56:58;;;;;;;9.35;4.80;;;18.60;94.10;;;;;;5018076;28;20056;-76
2023/07/09 03:59:24;;;;;;;8.93;4.85;;;18.60;94.10;;;;;;5016480;28;20034;-75
2023/07/09 04:01:49;;;;;;;8.25;4.60;;;18.60;94.10;;;;;;5016701;28;20033;-76
2023/07/09 04:04:19;;;;;;;10.27;4.78;;;18.60;94.00;;;;;;5018137;28;20029;-76
2023/07/09 04:06:46;;;;;;;7.22;4.40;;;18.60;94.00;;;;;;5015810;28;20327;-76
2023/07/09 04:09:11;;;;;;;8.20;4.40;;;18.60;94.10;;;;;;5015265;28;20037;-76
2023/07/09 04:11:37;;;;;;;8.50;4.78;;;18.50;94.30;;;;;;5017478;28;20026;-76
2023/07/09 04:14:02;;;;;;;9.40;4.72;;;18.60;94.50;;;;;;5016998;28;20068;-76
2023/07/09 04:16:28;;;;;;;8.88;4.88;;;18.60;94.50;;;;;;5015318;28;20026;-76
2023/07/09 04:18:53;;;;;;;11.40;5.25;;;18.60;94.50;;;;;;5015051;28;20411;-76
2023/07/09 04:21:19;;;;;;;8.70;4.50;;;18.60;94.50;;;;;;5015353;28;20423;-76
2023/07/09 04:23:44;;;;;;;9.70;4.60;;;18.60;94.30;;;;;;5016808;28;20171;-76
2023/07/09 04:26:13;;;;;;;8.82;4.53;;;18.60;94.20;;;;;;4998005;28;20053;-76
2023/07/09 04:28:39;;;;;;;9.70;4.90;;;18.60;94.30;;;;;;4999246;28;20492;-76
2023/07/09 04:31:05;;;;;;;10.60;5.20;;;18.70;94.30;;;;;;5016556;28;20065;-76
2023/07/09 04:33:30;;;;;;;8.85;4.35;;;18.70;94.40;;;;;;5015953;28;20030;-77
2023/07/09 04:35:57;;;;;;;9.00;4.00;;;18.70;94.30;;;;;;5014804;28;20124;-76
2023/07/09 04:38:22;;;;;;;10.50;4.53;;;18.70;94.30;;;;;;5016102;28;20034;-76
2023/07/09 04:40:48;;;;;;;8.32;4.75;;;18.70;94.40;;;;;;5017341;28;20406;-77
2023/07/09 04:43:14;;;;;;;8.40;4.32;;;18.80;94.30;;;;;;5015565;28;20033;-76
2023/07/09 04:45:40;;;;;;;9.82;4.57;;;18.80;94.00;;;;;;5017358;28;20111;-76
2023/07/09 04:48:06;;;;;;;9.75;4.30;;;18.90;94.10;;;;;;5011921;28;20036;-75
2023/07/09 04:50:32;;;;;;;9.60;4.40;;;18.90;94.10;;;;;;5013872;28;20033;-75
2023/07/09 04:52:59;;;;;;;10.68;4.68;;;19.00;93.90;;;;;;5013210;28;20445;-76
2023/07/09 04:55:26;;;;;;;8.68;4.88;;;19.00;93.70;;;;;;4999036;28;20040;-76
2023/07/09 04:57:52;;;;;;;8.88;4.85;;;19.10;93.60;;;;;;5015188;28;20123;-77
2023/07/09 05:00:18;;;;;;;8.65;4.13;;;19.20;93.60;;;;;;5012144;28;20049;-77
2023/07/09 05:02:44;;;;;;;11.43;5.38;;;19.20;93.80;;;;;;5016943;28;20034;-76
2023/07/09 05:05:11;;;;;;;10.27;4.45;;;19.30;93.90;;;;;;5016970;28;20065;-76
2023/07/09 05:07:37;;;;;;;9.55;4.60;;;19.40;93.50;;;;;;5013699;28;20064;-76
2023/07/09 05:10:03;;;;;;;9.98;4.32;;;19.50;93.60;;;;;;5016524;28;20057;-77
2023/07/09 05:12:28;;;;;;;7.10;4.28;;;19.50;93.40;;;;;;5015035;28;20486;-75
2023/07/09 05:14:56;;;;;;;11.27;4.32;;;19.60;93.30;;;;;;4998002;28;20076;-75
2023/07/09 05:17:23;;;;;;;9.30;4.78;;;19.70;93.50;;;;;;5014981;28;20318;-74
2023/07/09 05:19:49;;;;;;;7.50;4.30;;;19.80;93.70;;;;;;5014795;28;20105;-75
2023/07/09 05:22:15;;;;;;;8.80;4.63;;;19.80;93.40;;;;;;4996996;28;20030;-75
2023/07/09 05:24:41;;;;;;;8.75;4.70;;;19.90;93.10;;;;;;5013299;28;20038;-75
2023/07/09 05:27:06;;;;;;;6.30;4.10;;;20.00;92.90;;;;;;4998398;28;20121;-75
2023/07/09 05:29:32;;;;;;;7.82;4.15;;;20.00;93.40;;;;;;4996667;28;20106;-76
2023/07/09 05:31:57;;;;;;;9.70;4.60;;;20.10;93.30;;;;;;5013775;28;20018;-76
2023/07/09 05:34:23;;;;;;;10.20;4.22;;;20.20;93.20;;;;;;5015413;28;20029;-74
2023/07/09 05:36:48;;;;;;;13.85;5.03;;;20.40;92.90;;;;;;5013694;28;20364;-77
2023/07/09 05:39:14;;;;;;;9.90;4.68;;;20.50;92.30;;;;;;5012746;28;20334;-74
2023/07/09 05:41:40;;;;;;;7.03;3.95;;;20.70;92.40;;;;;;4994214;28;20350;-76
2023/07/09 05:44:05;;;;;;;8.77;4.80;;;20.80;93.00;;;;;;5016971;28;20030;-76
2023/07/09 05:46:37;;;;;;;7.57;4.13;;;20.90;92.40;;;;;;5020687;28;20303;-76
2023/07/09 05:49:06;;;;;;;10.25;4.43;;;21.00;92.10;;;;;;5014105;28;20438;-76
2023/07/09 05:51:32;;;;;;;8.65;4.38;;;21.20;91.30;;;;;;5012698;28;20829;-75
2023/07/09 05:53:58;;;;;;;8.15;4.50;;;21.30;91.50;;;;;;4998202;28;20029;-76
2023/07/09 05:56:23;;;;;;;8.10;4.60;;;21.50;91.20;;;;;;5016389;28;20021;-76
2023/07/09 05:58:49;;;;;;;10.05;4.53;;;21.60;91.30;;;;;;5026875;28;20030;-76
2023/07/09 06:01:14;;;;;;;7.45;3.65;;;21.80;91.00;;;;;;5009664;28;20053;-76
2023/07/09 06:03:40;;;;;;;6.90;3.78;;;22.00;90.10;;;;;;5011493;28;21563;-76
2023/07/09 06:06:06;;;;;;;10.25;4.82;;;22.20;89.80;;;;;;5012269;28;20851;-76
2023/07/09 06:08:32;;;;;;;8.38;4.18;;;22.40;89.70;;;;;;5012853;28;20041;-76
2023/07/09 06:11:02;;;;;;;6.75;3.90;;;22.60;89.00;;;;;;5012212;28;20314;-76
2023/07/09 06:13:31;;;;;;;9.52;4.25;;;22.80;87.40;;;;;;5012617;28;20430;-76
2023/07/09 06:15:57;;;;;;;6.50;3.53;;;23.00;87.80;;;;;;4996882;28;20026;-76
2023/07/09 06:18:24;;;;;;;9.00;3.92;;;23.20;87.90;;;;;;5010222;28;20038;-76
2023/07/09 06:20:52;;;;;;;9.35;4.57;;;23.30;87.40;;;;;;4991487;28;20037;-76
2023/07/09 06:23:18;;;;;;;8.05;3.90;;;23.50;87.00;;;;;;5014459;28;20033;-76
2023/07/09 06:25:47;;;;;;;8.38;3.92;;;23.70;87.20;;;;;;5018117;28;20481;-73
2023/07/09 06:28:32;;;;;;;8.35;4.20;;;23.90;87.30;;;;;;5015276;28;20060;-73
2023/07/09 06:30:58;;;;;;;7.65;4.18;;;24.10;87.20;;;;;;5015476;28;20026;-75
2023/07/09 06:33:25;;;;;;;10.20;4.10;;;24.30;85.60;;;;;;5018753;28;20018;-74
2023/07/09 06:35:54;;;;;;;20.75;4.97;;;24.40;86.90;;;;;;5000166;28;20091;-73
2023/07/09 06:38:20;;;;;;;7.05;3.80;;;24.40;86.80;;;;;;5016487;28;20417;-74
2023/07/09 06:40:46;;;;;;;9.45;4.00;;;24.60;85.20;;;;;;5017717;28;20036;-74
2023/07/09 06:43:11;;;;;;;11.00;4.32;;;24.70;85.50;;;;;;5019851;28;20356;-73
2023/07/09 06:45:37;;;;;;;7.28;4.10;;;24.90;85.70;;;;;;5018528;28;20057;-75
2023/07/09 06:48:03;;;;;;;8.05;3.97;;;24.90;84.70;;;;;;4995128;28;20030;-75
2023/07/09 06:50:29;;;;;;;8.80;4.30;;;25.00;83.20;;;;;;5016911;28;20109;-74
2023/07/09 06:52:54;;;;;;;7.68;3.97;;;25.10;82.90;;;;;;5014676;28;20106;-73
2023/07/09 06:55:20;;;;;;;8.20;4.13;;;25.30;82.50;;;;;;5016800;28;20091;-73
2023/07/09 06:57:45;;;;;;;7.90;4.32;;;25.50;81.30;;;;;;5015344;28;20329;-74
2023/07/09 07:00:11;;;;;;;8.77;4.47;;;25.60;81.40;;;;;;5014900;28;20041;-74
2023/07/09 07:02:37;;;;;;;10.30;4.57;;;25.70;80.40;;;;;;5016787;28;20045;-74
2023/07/09 07:05:03;;;;;;;10.18;4.28;;;25.90;79.40;;;;;;5013670;28;20042;-75
2023/07/09 07:07:28;;;;;;;9.73;4.20;;;26.00;79.00;;;;;;5014170;28;20105;-76
2023/07/09 07:09:54;;;;;;;7.43;4.15;;;26.10;77.20;;;;;;5017947;28;20038;-75
2023/07/09 07:12:27;;;;;;;10.73;4.18;;;26.20;77.10;;;;;;5014846;28;20034;-75
2023/07/09 07:14:53;;;;;;;10.48;4.38;;;26.40;75.70;;;;;;5016581;28;20072;-76
2023/07/09 07:17:19;;;;;;;7.93;4.47;;;26.40;76.50;;;;;;5014381;28;20097;-75
2023/07/09 07:19:45;;;;;;;9.23;4.57;;;26.40;79.00;;;;;;4998058;28;20418;-75
2023/07/09 07:22:10;;;;;;;8.00;4.38;;;26.50;78.60;;;;;;5015711;28;20037;-75
2023/07/09 07:24:36;;;;;;;7.85;4.40;;;26.60;79.10;;;;;;5016724;28;20415;-75
2023/07/09 07:27:01;;;;;;;7.68;3.92;;;26.90;78.90;;;;;;5014911;28;20434;-75
2023/07/09 07:29:27;;;;;;;8.13;4.00;;;27.20;78.70;;;;;;5009599;28;20910;-75
2023/07/09 07:31:54;;;;;;;8.95;4.43;;;27.80;79.30;;;;;;5014182;28;20022;-76
2023/07/09 07:34:19;;;;;;;8.68;4.15;;;28.70;76.00;;;;;;5015926;28;20030;-75
2023/07/09 07:36:45;;;;;;;7.68;3.88;;;29.40;73.10;;;;;;5012854;28;20034;-75
2023/07/09 07:39:12;;;;;;;7.07;3.65;;;29.90;70.40;;;;;;5012399;28;20044;-74
2023/07/09 07:41:38;;;;;;;7.13;4.05;;;30.40;70.40;;;;;;5014753;28;20320;-73
2023/07/09 07:44:04;;;;;;;8.05;3.80;;;30.90;69.90;;;;;;5018251;28;20072;-74
2023/07/09 07:46:32;;;;;;;7.85;3.58;;;31.30;66.90;;;;;;5018122;28;20300;-76
2023/07/09 07:48:58;;;;;;;8.82;3.45;;;31.70;67.70;;;;;;5018743;28;20324;-75
2023/07/09 07:51:23;;;;;;;8.25;3.63;;;32.00;65.80;;;;;;4990897;28;20026;-75
2023/07/09 07:53:49;;;;;;;9.63;3.78;;;32.30;65.00;;;;;;5015936;28;20033;-76
2023/07/09 07:56:15;;;;;;;8.95;3.90;;;32.60;64.00;;;;;;5013363;28;20045;-75
2023/07/09 07:58:40;;;;;;;7.97;3.90;;;32.80;63.20;;;;;;5011332;28;20423;-76
2023/07/09 08:01:06;;;;;;;7.43;3.55;;;33.10;62.20;;;;;;5014221;28;20033;-75
2023/07/09 08:03:35;;;;;;;7.85;3.83;;;33.50;61.50;;;;;;5017279;28;20076;-76
2023/07/09 08:06:01;;;;;;;8.00;3.55;;;33.70;61.10;;;;;;5019585;28;20034;-75
2023/07/09 08:08:27;;;;;;;8.73;4.35;;;33.90;60.80;;;;;;5014470;28;20030;-74
2023/07/09 08:11:07;;;;;;;7.63;4.20;;;33.60;60.20;;;;;;5015495;28;20026;-74
2023/07/09 08:13:37;;;;;;;7.93;3.75;;;33.20;61.50;;;;;;5013003;28;20018;-74
2023/07/09 08:16:04;;;;;;;7.65;4.10;;;33.10;61.90;;;;;;5015842;28;20037;-75
2023/07/09 08:18:30;;;;;;;9.65;3.85;;;33.20;63.10;;;;;;5017723;28;20441;-74
2023/07/09 08:21:02;;;;;;;8.70;4.20;;;33.30;62.30;;;;;;5009725;28;20109;-75
2023/07/09 08:23:28;;;;;;;10.70;4.00;;;33.00;62.40;;;;;;5014953;28;20472;-75
2023/07/09 08:25:55;;;;;;;9.40;4.00;;;33.50;61.60;;;;;;5016242;28;20042;-75
2023/07/09 08:28:21;;;;;;;6.85;3.88;;;33.90;61.90;;;;;;4997558;28;20378;-76
2023/07/09 08:30:46;;;;;;;8.80;3.72;;;34.60;59.80;;;;;;4993995;28;20018;-75
2023/07/09 08:33:12;;;;;;;7.72;4.15;;;34.80;59.20;;;;;;5011384;28;20026;-75
2023/07/09 08:35:37;;;;;;;7.70;3.53;;;35.30;58.00;;;;;;5011562;28;20053;-75
2023/07/09 08:38:04;;;;;;;9.73;4.53;;;35.20;59.50;;;;;;5015185;28;20029;-75
2023/07/09 08:40:32;;;;;;;6.68;3.90;;;35.00;58.70;;;;;;5002675;28;20034;-75
2023/07/09 08:43:10;;;;;;;8.95;3.80;;;34.60;59.30;;;;;;4995467;28;20042;-74
2023/07/09 08:45:57;;;;;;;9.20;4.20;;;34.40;59.60;;;;;;4989228;28;20402;-75
2023/07/09 08:48:31;;;;;;;6.47;3.60;;;34.00;60.60;;;;;;5015188;28;20133;-75
2023/07/09 08:51:24;;;;;;;8.45;3.60;;;34.00;60.70;;;;;;5011812;28;20319;-76
2023/07/09 08:54:00;;;;;;;5.65;3.65;;;34.60;59.70;;;;;;5012982;28;20107;-75
2023/07/09 08:56:30;;;;;;;6.03;3.60;;;34.40;58.00;;;;;;5014605;28;20147;-75
2023/07/09 08:59:00;;;;;;;8.57;3.88;;;34.50;59.60;;;;;;5011810;28;20076;-74
2023/07/09 09:01:35;;;;;;;11.35;4.13;;;35.20;57.90;;;;;;5015064;28;20062;-75
2023/07/09 09:04:17;;;;;;;7.22;3.70;;;35.30;56.70;;;;;;5013648;28;20105;-75
2023/07/09 09:06:51;;;;;;;7.18;3.63;;;35.30;56.80;;;;;;5011838;28;20052;-74
2023/07/09 09:09:40;;;;;;;8.02;3.78;;;35.40;57.20;;;;;;5011151;28;20018;-75
2023/07/09 09:12:11;;;;;;;7.97;3.60;;;35.80;54.70;;;;;;5009237;28;20022;-74
2023/07/09 09:14:43;;;;;;;8.05;3.92;;;35.70;56.20;;;;;;5016047;28;20053;-75
2023/07/09 09:17:20;;;;;;;11.18;3.95;;;36.20;54.40;;;;;;5012754;28;20034;-75
2023/07/09 09:20:06;;;;;;;7.43;3.60;;;35.70;55.10;;;;;;5009027;28;20477;-75
2023/07/09 09:23:12;;;;;;;7.97;3.53;;;35.70;55.10;;;;;;5014215;28;20057;-75
2023/07/09 09:25:42;;;;;;;7.43;3.47;;;36.10;54.50;;;;;;5009045;28;20033;-75
2023/07/09 09:28:08;;;;;;;9.57;4.15;;;36.40;53.80;;;;;;5014632;28;20037;-75
2023/07/09 09:30:34;;;;;;;8.02;3.75;;;36.40;53.10;;;;;;4996024;28;20041;-75
2023/07/09 09:33:02;;;;;;;9.45;3.92;;;37.00;52.10;;;;;;5014086;28;20028;-75
2023/07/09 09:35:47;;;;;;;7.00;3.50;;;36.90;52.30;;;;;;5009919;28;20028;-75
2023/07/09 09:38:21;;;;;;;6.93;3.88;;;35.80;53.40;;;;;;5006020;28;20038;-75
2023/07/09 09:40:47;;;;;;;8.18;3.72;;;35.50;53.50;;;;;;5010479;28;20030;-75
2023/07/09 09:43:19;;;;;;;8.07;3.67;;;35.70;54.00;;;;;;5012561;28;20055;-76
2023/07/09 09:45:48;;;;;;;7.03;3.50;;;34.70;55.70;;;;;;5017858;28;20026;-75
2023/07/09 09:48:31;;;;;;;6.95;3.63;;;34.60;53.80;;;;;;5012000;28;20045;-75
2023/07/09 09:51:01;;;;;;;8.38;3.90;;;35.60;52.70;;;;;;5010028;28;20315;-76
2023/07/09 09:53:29;;;;;;;7.05;3.17;;;36.50;52.00;;;;;;5008572;28;20064;-75
2023/07/09 09:55:56;;;;;;;7.28;3.40;;;37.00;50.80;;;;;;5012643;28;20030;-76
2023/07/09 09:58:32;;;;;;;10.82;3.67;;;37.70;48.70;;;;;;4995376;28;20030;-75
2023/07/09 10:01:00;;;;;;;6.30;3.05;;;37.80;49.00;;;;;;5012017;28;20021;-76
2023/07/09 10:03:38;;;;;;;7.15;2.88;;;37.30;49.40;;;;;;4998215;28;20293;-75
2023/07/09 10:06:30;;;;;;;7.60;2.85;;;36.90;49.50;;;;;;4997786;28;20121;-75
2023/07/09 10:09:21;;;;;;;7.40;3.38;;;37.50;47.80;;;;;;5004654;28;20077;-75
2023/07/09 10:11:53;;;;;;;5.03;2.60;;;38.30;46.40;;;;;;4998367;28;20429;-75
2023/07/09 10:14:33;;;;;;;7.10;3.20;;;38.80;46.80;;;;;;5013140;28;20038;-75
2023/07/09 10:17:28;;;;;;;5.70;2.80;;;38.70;47.60;;;;;;5011716;28;20026;-75
2023/07/09 10:20:06;;;;;;;5.88;2.70;;;38.70;46.60;;;;;;4992441;28;20041;-74
2023/07/09 10:22:52;;;;;;;7.35;3.70;;;39.20;45.40;;;;;;4995428;28;20423;-75
2023/07/09 10:25:46;;;;;;;5.45;2.80;;;38.20;46.50;;;;;;4996781;28;20496;-76
2023/07/09 10:28:33;;;;;;;7.97;3.25;;;37.00;49.60;;;;;;5007382;28;20116;-75
2023/07/09 10:31:39;;;;;;;10.05;3.83;;;37.30;48.50;;;;;;5014551;28;20062;-75
2023/07/09 10:34:45;;;;;;;6.10;3.35;;;37.40;46.90;;;;;;5004466;28;20432;-76
2023/07/09 10:37:29;;;;;;;7.13;3.28;;;37.60;46.80;;;;;;5008657;28;20046;-75
2023/07/09 10:39:58;;;;;;;6.50;2.80;;;38.10;48.00;;;;;;5010353;28;20045;-75
2023/07/09 10:42:35;;;;;;;7.95;3.65;;;38.70;47.80;;;;;;5011702;28;20140;-75
2023/07/09 10:45:18;;;;;;;8.43;3.72;;;39.00;45.10;;;;;;5006731;28;20037;-75
2023/07/09 10:47:47;;;;;;;7.03;3.20;;;38.40;47.40;;;;;;4996315;28;20443;-76
2023/07/09 10:50:26;;;;;;;6.10;2.80;;;37.60;49.60;;;;;;5010909;28;20146;-75
2023/07/09 10:52:56;;;;;;;8.55;3.60;;;37.80;47.50;;;;;;5001941;28;20041;-75
2023/07/09 10:55:51;;;;;;;8.07;3.28;;;37.80;46.20;;;;;;5013624;28;20026;-76
2023/07/09 10:58:30;;;;;;;6.93;3.40;;;37.70;48.10;;;;;;5011948;28;20049;-74
2023/07/09 11:00:57;;;;;;;8.27;3.33;;;38.20;46.20;;;;;;5004863;28;20030;-74
2023/07/09 11:03:39;;;;;;;5.65;3.42;;;38.20;46.40;;;;;;4994912;28;20438;-76
2023/07/09 11:06:14;;;;;;;8.32;3.42;;;37.00;47.30;;;;;;4996849;28;20088;-75
2023/07/09 11:08:41;;;;;;;6.22;3.35;;;37.00;48.50;;;;;;5017631;28;20065;-76
2023/07/09 11:11:32;;;;;;;9.95;3.25;;;37.50;46.70;;;;;;4982139;28;20029;-75
2023/07/09 11:14:05;;;;;;;9.55;3.42;;;37.90;45.60;;;;;;4999766;28;20022;-76
2023/07/09 11:16:39;;;;;;;6.75;3.50;;;37.80;48.70;;;;;;5000243;28;20045;-75
2023/07/09 11:19:13;;;;;;;8.55;3.15;;;37.90;46.80;;;;;;5013335;28;20030;-75
2023/07/09 11:22:20;;;;;;;9.15;3.60;;;37.90;46.50;;;;;;5012604;28;20104;-75
2023/07/09 11:25:04;;;;;;;6.50;3.10;;;38.10;47.40;;;;;;4996659;28;20318;-75
2023/07/09 11:27:31;;;;;;;6.45;3.60;;;38.40;44.80;;;;;;5014264;28;20430;-75
2023/07/09 11:30:05;;;;;;;8.43;3.65;;;38.10;44.90;;;;;;5012448;28;20025;-75
2023/07/09 11:32:30;;;;;;;7.05;3.13;;;37.20;45.90;;;;;;5017054;28;20033;-75
2023/07/09 11:35:08;;;;;;;6.70;3.10;;;36.50;47.10;;;;;;5017069;28;20411;-75
2023/07/09 11:37:45;;;;;;;7.40;3.58;;;36.00;49.80;;;;;;4996294;28;20029;-75
2023/07/09 11:40:14;;;;;;;9.18;3.60;;;36.20;48.00;;;;;;5014989;28;20145;-76
2023/07/09 11:42:55;;;;;;;6.93;3.20;;;36.40;49.60;;;;;;5012813;28;20053;-75
2023/07/09 11:45:34;;;;;;;7.82;3.38;;;35.50;50.40;;;;;;5016359;28;20108;-75
2023/07/09 11:48:24;;;;;;;9.13;3.60;;;35.00;51.10;;;;;;5006317;28;20034;-75
2023/07/09 11:50:52;;;;;;;6.30;3.00;;;34.50;51.30;;;;;;5011772;28;20017;-75
2023/07/09 11:53:36;;;;;;;8.45;3.67;;;35.00;52.30;;;;;;5017833;28;20048;-75
2023/07/09 11:56:02;;;;;;;8.07;3.40;;;36.10;49.40;;;;;;4997388;28;20030;-75
2023/07/09 11:58:32;;;;;;;12.73;3.40;;;36.60;47.90;;;;;;5017923;28;20037;-74
2023/07/09 12:00:59;;;;;;;5.22;3.13;;;36.50;49.10;;;;;;5005269;28;20049;-75
2023/07/09 12:03:35;;;;;;;8.63;3.63;;;36.60;49.10;;;;;;5012079;28;20083;-75
2023/07/09 12:06:04;;;;;;;8.40;3.72;;;37.40;48.30;;;;;;5021632;28;20026;-75
2023/07/09 12:08:35;;;;;;;7.13;3.25;;;37.80;47.40;;;;;;5026224;28;20076;-75
2023/07/09 12:11:01;;;;;;;9.15;3.60;;;38.00;47.10;;;;;;4998678;28;20023;-75
2023/07/09 12:13:28;;;;;;;10.40;3.30;;;38.40;46.10;;;;;;5017529;28;20116;-76
2023/07/09 12:15:54;;;;;;;6.45;3.25;;;38.80;45.20;;;;;;5019573;28;20253;-75
2023/07/09 12:18:19;;;;;;;6.28;3.25;;;38.90;45.20;;;;;;5010084;28;20034;-75
2023/07/09 12:20:50;;;;;;;8.30;3.40;;;39.10;44.50;;;;;;5013851;28;20328;-74
2023/07/09 12:23:24;;;;;;;9.23;3.05;;;39.00;42.70;;;;;;5014768;28;20057;-74
2023/07/09 12:25:51;;;;;;;7.18;3.75;;;38.50;44.80;;;;;;5014843;28;20067;-74
2023/07/09 12:28:18;;;;;;;8.75;3.40;;;38.60;43.80;;;;;;5008912;28;20021;-75
2023/07/09 12:30:52;;;;;;;7.35;3.10;;;39.20;44.60;;;;;;5016446;28;20354;-75
2023/07/09 12:33:20;;;;;;;6.53;3.40;;;40.00;42.90;;;;;;4997645;28;20026;-75
2023/07/09 12:35:47;;;;;;;6.70;3.10;;;39.90;40.40;;;;;;5016328;28;20028;-74
2023/07/09 12:38:21;;;;;;;7.47;3.30;;;39.30;41.40;;;;;;5015206;28;20041;-75
2023/07/09 12:40:49;;;;;;;5.90;2.92;;;38.80;40.90;;;;;;4997697;28;20026;-75
2023/07/09 12:43:22;;;;;;;5.50;3.00;;;38.30;40.50;;;;;;5014136;28;20052;-74
2023/07/09 12:45:48;;;;;;;5.75;3.05;;;37.40;42.80;;;;;;4998582;28;20036;-75
2023/07/09 12:48:14;;;;;;;8.30;3.20;;;37.50;43.70;;;;;;5015068;28;20535;-75
2023/07/09 12:50:39;;;;;;;6.22;2.92;;;37.70;42.20;;;;;;5014171;28;20308;-75
2023/07/09 12:53:17;;;;;;;8.90;3.13;;;37.60;41.30;;;;;;5009104;28;20037;-76
2023/07/09 12:55:45;;;;;;;7.15;3.17;;;38.20;42.60;;;;;;5015722;28;20026;-75
2023/07/09 12:58:18;;;;;;;7.93;2.88;;;38.70;43.20;;;;;;5015796;28;20049;-75